Time;durP1;ratioP1;P1;durP2;ratioP2;P2;SDS_P1;SDS_P2;PMS_P1;PMS_P2;Temp;Humidity;BMP_temperature;BMP_pressure;BME280_temperature;BME280_humidity;BME280_pressure;Samples;Min_cycle;Max_cycle;Signal;HPM_P1;HPM_P2
2022/09/12 10:11:25;;;;;;;0.88;0.80;;;22.60;99.90;;;;;;5502198;22;18789207;-72
2022/09/12 10:13:55;;;;;;;1.38;0.85;;;23.20;99.90;;;;;;6315900;22;20493;-72
2022/09/12 10:16:24;;;;;;;1.27;0.90;;;23.40;99.90;;;;;;6316244;22;20178;-73
2022/09/12 10:18:52;;;;;;;0.80;0.70;;;23.50;99.90;;;;;;6316053;22;20184;-73
2022/09/12 10:21:30;;;;;;;2.15;0.85;;;23.70;99.90;;;;;;6315711;22;20201;-72
2022/09/12 10:24:21;;;;;;;1.17;0.82;;;23.70;99.90;;;;;;6316486;22;20272;-72
2022/09/12 10:26:52;;;;;;;1.10;0.90;;;23.60;99.90;;;;;;6316379;22;20180;-72
2022/09/12 10:29:24;;;;;;;1.23;0.82;;;23.40;99.90;;;;;;6315999;22;20675;-71
2022/09/12 10:31:54;;;;;;;0.60;0.60;;;23.40;99.90;;;;;;6315970;22;20193;-73
2022/09/12 10:34:29;;;;;;;1.00;0.80;;;23.40;99.90;;;;;;6315904;22;20174;-71
2022/09/12 10:37:01;;;;;;;1.55;0.98;;;23.40;99.90;;;;;;6315254;22;20235;-71
2022/09/12 10:39:29;;;;;;;0.82;0.75;;;23.60;99.90;;;;;;6315936;22;20174;-72
2022/09/12 10:41:58;;;;;;;0.88;0.77;;;23.70;99.90;;;;;;6315287;22;20197;-70
2022/09/12 10:47:46;;;;;;;1.02;0.73;;;23.50;99.90;;;;;;6315884;22;20210;-70
2022/09/12 10:50:35;;;;;;;1.10;0.70;;;23.50;99.90;;;;;;6315617;22;20205;-70
2022/09/12 10:53:19;;;;;;;0.98;0.60;;;23.60;99.90;;;;;;6316072;22;20174;-70
2022/09/12 10:56:01;;;;;;;1.67;0.90;;;23.70;99.90;;;;;;6313603;22;20180;-71
2022/09/12 10:58:46;;;;;;;0.60;0.60;;;23.70;99.90;;;;;;6315635;22;20173;-71
2022/09/12 11:01:24;;;;;;;1.58;1.02;;;23.70;99.90;;;;;;6315953;22;20221;-71
2022/09/12 11:04:09;;;;;;;2.25;0.70;;;23.70;99.90;;;;;;6316176;22;20174;-71
2022/09/12 11:06:48;;;;;;;0.90;0.70;;;23.70;99.90;;;;;;6315595;22;20256;-70
2022/09/12 11:09:23;;;;;;;2.05;0.77;;;23.50;99.90;;;;;;6318161;22;20205;-71
2022/09/12 11:12:03;;;;;;;0.82;0.80;;;23.70;99.90;;;;;;6341461;22;20193;-70
2022/09/12 11:14:50;;;;;;;0.95;0.70;;;23.70;99.90;;;;;;6340263;22;20204;-71
2022/09/12 11:17:29;;;;;;;0.93;0.65;;;23.90;99.90;;;;;;6340149;22;20909;-71
2022/09/12 11:20:40;;;;;;;0.45;0.40;;;23.80;99.90;;;;;;6339884;22;20177;-70
2022/09/12 11:23:31;;;;;;;0.98;0.77;;;23.70;99.90;;;;;;6267025;22;20180;-70
2022/09/12 11:26:06;;;;;;;1.48;0.68;;;23.90;99.90;;;;;;6339945;22;20177;-70
2022/09/12 11:28:47;;;;;;;1.77;1.20;;;23.80;99.90;;;;;;6339946;22;20173;-71
2022/09/12 11:31:37;;;;;;;1.02;0.80;;;23.80;99.90;;;;;;6339709;22;20197;-70
2022/09/12 11:34:09;;;;;;;0.85;0.70;;;24.00;99.90;;;;;;6339801;22;20177;-69
2022/09/12 11:36:46;;;;;;;0.98;0.75;;;24.10;99.90;;;;;;6339649;22;20178;-69
2022/09/12 11:39:15;;;;;;;2.28;0.70;;;24.20;99.90;;;;;;6339814;22;20255;-70
2022/09/12 11:41:44;;;;;;;1.00;0.90;;;24.40;99.90;;;;;;6339505;22;20200;-70
2022/09/12 11:44:19;;;;;;;2.55;1.10;;;24.40;99.90;;;;;;6339235;22;20575;-71
2022/09/12 11:46:47;;;;;;;2.90;1.00;;;24.40;99.90;;;;;;6339621;22;20536;-71
2022/09/12 11:49:23;;;;;;;1.10;0.90;;;24.40;99.90;;;;;;6336493;22;20197;-71
2022/09/12 11:51:55;;;;;;;1.73;1.00;;;24.50;99.90;;;;;;6339044;22;20193;-71
2022/09/12 11:54:28;;;;;;;2.25;0.93;;;24.50;99.90;;;;;;6339223;22;20184;-71
2022/09/12 11:57:06;;;;;;;1.23;0.70;;;24.20;99.90;;;;;;6339019;22;20640;-72
2022/09/12 11:59:40;;;;;;;1.13;0.80;;;24.20;99.90;;;;;;6339362;22;20173;-70
2022/09/12 12:02:13;;;;;;;2.05;1.00;;;24.20;99.90;;;;;;6342471;22;20284;-70
2022/09/12 12:04:51;;;;;;;1.83;0.77;;;24.20;99.90;;;;;;6340993;22;20195;-70
2022/09/12 12:07:19;;;;;;;1.70;0.88;;;24.30;99.90;;;;;;6340503;22;20177;-70
2022/09/12 12:09:49;;;;;;;0.90;0.80;;;24.40;99.90;;;;;;6339832;22;20205;-72
2022/09/12 12:12:21;;;;;;;1.08;0.60;;;24.50;99.90;;;;;;6314784;22;20194;-69
2022/09/12 12:14:51;;;;;;;2.22;1.00;;;24.70;99.90;;;;;;6339632;22;20482;-73
2022/09/12 12:17:22;;;;;;;1.23;0.70;;;24.80;99.90;;;;;;6339641;22;20174;-71
2022/09/12 12:19:58;;;;;;;1.15;0.75;;;24.80;99.90;;;;;;6338947;22;20649;-71
2022/09/12 12:22:25;;;;;;;3.80;0.80;;;24.90;99.90;;;;;;6339277;22;20179;-70
2022/09/12 12:25:08;;;;;;;1.13;0.68;;;25.00;99.90;;;;;;6339721;22;20173;-71
2022/09/12 12:27:53;;;;;;;1.60;0.82;;;25.20;99.90;;;;;;6339731;22;20173;-70
2022/09/12 12:31:02;;;;;;;1.10;0.82;;;25.10;99.90;;;;;;6339288;22;20216;-70
2022/09/12 12:34:00;;;;;;;3.20;0.90;;;25.20;99.90;;;;;;6339399;22;20180;-72
2022/09/12 12:36:37;;;;;;;2.05;0.95;;;25.10;99.90;;;;;;6339100;22;20184;-71
2022/09/12 12:39:37;;;;;;;2.33;0.95;;;25.00;99.90;;;;;;6339388;22;20272;-72
2022/09/12 12:42:05;;;;;;;2.15;0.85;;;24.70;99.90;;;;;;6306582;22;20206;-71
2022/09/12 12:44:49;;;;;;;1.38;0.73;;;24.80;99.90;;;;;;6339113;22;20177;-70
2022/09/12 12:47:19;;;;;;;1.02;0.80;;;24.90;99.90;;;;;;6339396;22;20174;-70
2022/09/12 12:49:54;;;;;;;3.17;1.00;;;25.00;99.90;;;;;;6339307;22;20205;-70
2022/09/12 12:52:21;;;;;;;3.38;0.98;;;25.20;99.90;;;;;;6339298;22;20173;-70
2022/09/12 12:54:55;;;;;;;1.70;0.85;;;25.20;99.90;;;;;;6339533;22;20182;-71
2022/09/12 12:57:30;;;;;;;5.25;1.08;;;25.30;99.90;;;;;;6338908;22;20720;-70
2022/09/12 13:00:01;;;;;;;2.65;0.90;;;25.30;99.90;;;;;;6338701;22;20176;-69
2022/09/12 13:02:31;;;;;;;1.20;0.80;;;25.40;99.90;;;;;;6339214;22;20177;-73
2022/09/12 13:05:02;;;;;;;1.70;0.73;;;25.60;99.90;;;;;;6339684;22;20183;-70
2022/09/12 13:07:33;;;;;;;3.80;0.82;;;25.70;99.90;;;;;;6339276;22;20197;-70
2022/09/12 13:10:01;;;;;;;4.80;1.00;;;25.70;99.90;;;;;;6338923;22;20205;-70
2022/09/12 13:12:32;;;;;;;1.75;0.80;;;25.60;99.90;;;;;;6339354;22;20177;-70
2022/09/12 13:15:00;;;;;;;0.70;0.50;;;25.70;99.90;;;;;;6339221;22;20230;-70
2022/09/12 13:17:37;;;;;;;1.17;0.80;;;25.70;99.90;;;;;;6338998;22;20179;-71
2022/09/12 13:20:23;;;;;;;2.33;0.80;;;25.60;99.90;;;;;;6339099;22;20180;-70
2022/09/12 13:22:51;;;;;;;1.25;0.80;;;25.50;99.90;;;;;;6339059;22;20252;-70
2022/09/12 13:25:28;;;;;;;1.08;0.80;;;25.50;99.90;;;;;;6338660;22;20641;-72
2022/09/12 13:28:07;;;;;;;0.90;0.68;;;25.50;99.90;;;;;;6339069;22;20228;-70
2022/09/12 13:30:36;;;;;;;1.88;0.80;;;25.60;99.90;;;;;;6338463;22;20211;-70
2022/09/12 13:33:17;;;;;;;2.67;0.73;;;25.80;99.90;;;;;;6338979;22;20179;-70
2022/09/12 13:36:10;;;;;;;1.30;0.90;;;25.80;99.90;;;;;;6338969;22;20256;-70
2022/09/12 13:38:47;;;;;;;1.52;0.75;;;25.70;99.90;;;;;;6339006;22;20191;-71
2022/09/12 13:41:30;;;;;;;3.03;1.08;;;25.70;99.90;;;;;;6338942;22;20199;-72
2022/09/12 13:43:57;;;;;;;0.93;0.80;;;25.80;99.90;;;;;;6338520;22;20177;-70
2022/09/12 13:46:30;;;;;;;1.48;0.70;;;25.80;99.90;;;;;;6338984;22;20180;-70
2022/09/12 13:48:57;;;;;;;1.75;0.80;;;26.00;99.90;;;;;;6339142;22;20179;-70
2022/09/12 13:51:28;;;;;;;2.67;0.70;;;25.80;99.90;;;;;;6338684;22;20205;-70
2022/09/12 13:53:59;;;;;;;2.10;0.70;;;26.00;99.90;;;;;;6338735;22;20176;-70
2022/09/12 13:56:26;;;;;;;1.08;0.75;;;26.00;99.90;;;;;;6338757;22;20174;-70
2022/09/12 13:58:55;;;;;;;2.63;0.65;;;25.70;99.90;;;;;;6338440;22;20836;-69
2022/09/12 14:01:24;;;;;;;0.88;0.60;;;25.70;99.90;;;;;;6339092;22;20254;-71
2022/09/12 14:06:48;;;;;;;1.48;0.73;;;25.80;99.90;;;;;;6340634;22;20540;-70
2022/09/12 14:09:17;;;;;;;1.00;0.80;;;26.00;99.90;;;;;;6339275;22;20496;-70
2022/09/12 14:11:44;;;;;;;1.00;0.80;;;26.10;99.50;;;;;;6340314;22;20282;-70
2022/09/12 14:14:26;;;;;;;1.83;0.80;;;26.30;99.90;;;;;;6339792;22;20173;-69
2022/09/12 14:16:53;;;;;;;1.35;0.70;;;26.50;99.90;;;;;;6340483;22;20613;-72
2022/09/12 14:19:23;;;;;;;1.48;0.80;;;26.30;98.80;;;;;;6340664;22;20173;-70
2022/09/12 14:21:53;;;;;;;5.82;0.80;;;26.20;99.90;;;;;;6340246;22;20254;-74
2022/09/12 14:24:22;;;;;;;1.50;0.80;;;26.00;99.90;;;;;;6339869;22;20231;-73
2022/09/12 14:26:50;;;;;;;0.85;0.65;;;26.00;98.70;;;;;;6340899;22;20183;-72
2022/09/12 14:29:18;;;;;;;0.93;0.75;;;25.80;98.30;;;;;;6340417;22;20260;-73
2022/09/12 14:31:45;;;;;;;1.80;0.90;;;26.00;99.40;;;;;;6338884;22;20205;-69
2022/09/12 14:34:13;;;;;;;1.00;0.80;;;26.20;99.30;;;;;;6338567;22;20173;-73
2022/09/12 14:36:44;;;;;;;1.30;0.88;;;26.20;98.50;;;;;;6338656;22;20209;-73
2022/09/12 14:39:21;;;;;;;1.58;0.82;;;26.10;98.20;;;;;;6338873;22;20490;-73
2022/09/12 14:41:49;;;;;;;1.02;0.70;;;25.90;98.60;;;;;;6338198;22;20665;-68
2022/09/12 14:44:19;;;;;;;1.60;0.70;;;25.90;98.00;;;;;;6338668;22;20177;-73
2022/09/12 14:46:47;;;;;;;2.45;0.77;;;26.00;99.10;;;;;;6339656;22;20216;-69
2022/09/12 14:49:18;;;;;;;1.58;0.70;;;26.10;98.60;;;;;;6340742;22;20177;-68
2022/09/12 14:51:54;;;;;;;1.40;0.80;;;26.00;98.70;;;;;;6340076;22;20524;-69
2022/09/12 14:54:41;;;;;;;0.90;0.70;;;26.10;99.10;;;;;;6341416;22;20289;-69
2022/09/12 14:57:32;;;;;;;1.67;0.90;;;26.30;99.90;;;;;;6340103;22;20517;-72
2022/09/12 15:00:21;;;;;;;1.00;0.77;;;26.10;98.60;;;;;;6341274;22;20694;-70
2022/09/12 15:02:49;;;;;;;1.30;0.68;;;26.00;99.00;;;;;;6340331;22;20196;-70
2022/09/12 15:05:19;;;;;;;1.15;0.70;;;26.10;99.00;;;;;;6339771;22;20641;-70
2022/09/12 15:07:53;;;;;;;4.00;0.82;;;26.20;98.00;;;;;;6340137;22;20173;-72
2022/09/12 15:10:25;;;;;;;1.95;0.88;;;26.20;97.40;;;;;;6339839;22;20207;-70
2022/09/12 15:13:12;;;;;;;4.10;1.70;;;26.20;98.40;;;;;;6340404;22;20180;-71
2022/09/12 15:15:41;;;;;;;2.72;0.88;;;26.10;99.50;;;;;;6340190;22;20177;-71
2022/09/12 15:18:09;;;;;;;3.35;0.73;;;26.20;98.50;;;;;;6339893;22;20181;-71
2022/09/12 15:20:37;;;;;;;7.25;2.53;;;26.10;98.30;;;;;;6339339;22;20197;-72
2022/09/12 15:23:06;;;;;;;4.53;0.60;;;26.00;98.70;;;;;;6339936;22;20177;-70
2022/09/12 15:25:34;;;;;;;1.10;0.63;;;25.90;98.20;;;;;;6339909;22;20567;-71
2022/09/12 15:28:01;;;;;;;1.08;0.70;;;25.90;98.00;;;;;;6340086;22;20173;-69
2022/09/12 15:30:28;;;;;;;1.67;0.70;;;25.70;97.50;;;;;;6339965;22;20251;-71
2022/09/12 15:32:55;;;;;;;2.42;0.50;;;25.60;97.50;;;;;;6339816;22;20173;-72
2022/09/12 15:35:24;;;;;;;0.52;0.50;;;25.70;97.60;;;;;;6340070;22;20180;-69
2022/09/12 15:37:51;;;;;;;11.57;3.05;;;25.80;98.20;;;;;;6339639;22;20717;-70
2022/09/12 15:40:18;;;;;;;10.35;2.55;;;25.80;98.60;;;;;;6339865;22;20193;-71
2022/09/12 15:42:46;;;;;;;8.15;1.60;;;25.90;97.60;;;;;;6339766;22;20177;-70
2022/09/12 15:45:20;;;;;;;1.85;0.80;;;25.80;97.80;;;;;;6340453;22;20180;-71
2022/09/12 15:47:47;;;;;;;1.70;0.57;;;25.70;97.70;;;;;;6339751;22;20312;-70
2022/09/12 15:50:14;;;;;;;0.55;0.40;;;25.70;97.40;;;;;;6339996;22;20173;-69
2022/09/12 15:52:41;;;;;;;0.60;0.40;;;25.60;97.10;;;;;;6339494;22;20173;-70
2022/09/12 15:55:15;;;;;;;0.90;0.50;;;25.60;97.00;;;;;;6339379;22;20173;-71
2022/09/12 15:57:41;;;;;;;0.40;0.40;;;25.50;97.20;;;;;;6339725;22;20184;-69
2022/09/12 16:00:11;;;;;;;1.20;0.60;;;25.50;97.60;;;;;;6339762;22;20179;-70
2022/09/12 16:02:38;;;;;;;1.83;0.63;;;25.50;98.10;;;;;;6339779;22;20251;-70
2022/09/12 16:05:06;;;;;;;1.02;0.60;;;25.50;98.10;;;;;;6268105;22;20214;-70
2022/09/12 16:07:33;;;;;;;3.58;0.68;;;25.50;98.00;;;;;;6246991;23;20182;-70
2022/09/12 16:09:59;;;;;;;3.38;0.60;;;25.50;97.70;;;;;;6246786;22;20183;-71
2022/09/12 16:12:26;;;;;;;0.77;0.60;;;25.50;98.40;;;;;;6246614;23;20212;-71
2022/09/12 16:14:53;;;;;;;1.50;0.70;;;25.50;98.30;;;;;;6246943;23;20176;-70
2022/09/12 16:17:21;;;;;;;0.77;0.57;;;25.40;99.00;;;;;;6246931;23;20230;-72
2022/09/12 16:19:48;;;;;;;0.60;0.57;;;25.20;98.90;;;;;;6246781;23;20235;-71
2022/09/12 16:22:14;;;;;;;0.52;0.47;;;25.20;99.20;;;;;;6246719;22;20200;-71
2022/09/12 16:24:41;;;;;;;2.15;0.95;;;25.10;99.90;;;;;;6246619;23;20180;-71
2022/09/12 16:27:08;;;;;;;0.80;0.50;;;25.10;99.90;;;;;;6246433;23;20182;-71
2022/09/12 16:29:35;;;;;;;12.00;1.98;;;25.10;99.90;;;;;;6246430;23;20176;-72
2022/09/12 16:32:02;;;;;;;1.38;0.63;;;25.10;99.90;;;;;;6245891;22;20211;-71
2022/09/12 16:34:30;;;;;;;2.70;0.70;;;25.00;99.90;;;;;;6246753;23;20197;-71
2022/09/12 16:36:57;;;;;;;0.95;0.50;;;25.00;99.90;;;;;;6246041;23;20191;-71
2022/09/12 16:39:24;;;;;;;0.77;0.47;;;24.90;99.90;;;;;;6246801;23;20505;-70
2022/09/12 16:41:50;;;;;;;0.75;0.40;;;24.90;99.90;;;;;;6246622;22;20276;-71
2022/09/12 16:44:17;;;;;;;1.58;0.57;;;24.90;99.90;;;;;;6246077;23;20186;-71
2022/09/12 16:46:44;;;;;;;1.02;0.55;;;24.90;99.90;;;;;;6245899;23;20573;-71
2022/09/12 16:49:11;;;;;;;1.20;0.50;;;24.90;99.90;;;;;;6246552;23;20180;-71
2022/09/12 16:51:43;;;;;;;1.80;0.60;;;24.90;99.90;;;;;;6246220;22;20261;-71
2022/09/12 16:54:10;;;;;;;1.80;0.82;;;24.90;99.90;;;;;;6246555;23;20175;-71
2022/09/12 16:56:37;;;;;;;1.20;0.90;;;24.90;99.90;;;;;;6246259;23;20176;-71
2022/09/12 16:59:05;;;;;;;1.45;0.70;;;24.90;99.90;;;;;;6246242;23;20262;-70
2022/09/12 17:01:33;;;;;;;1.02;0.73;;;24.90;99.90;;;;;;6246321;22;20207;-72
2022/09/12 17:04:00;;;;;;;1.25;0.60;;;24.80;99.90;;;;;;6245811;23;20506;-72
2022/09/12 17:06:28;;;;;;;1.38;0.70;;;24.80;99.90;;;;;;6246039;23;20211;-70
2022/09/12 17:09:00;;;;;;;2.78;0.80;;;24.80;99.90;;;;;;6245177;23;20667;-71
2022/09/12 17:11:30;;;;;;;1.45;0.55;;;24.80;99.90;;;;;;6245282;22;20571;-71
2022/09/12 17:13:58;;;;;;;1.05;0.70;;;24.70;99.90;;;;;;6245768;23;20266;-71
2022/09/12 17:16:25;;;;;;;1.55;0.60;;;24.70;99.90;;;;;;6246040;23;20182;-71
2022/09/12 17:18:52;;;;;;;1.33;0.70;;;24.70;99.90;;;;;;6246014;23;20225;-71
2022/09/12 17:21:20;;;;;;;0.80;0.70;;;24.60;99.90;;;;;;6246172;22;20196;-71
2022/09/12 17:23:48;;;;;;;1.00;0.60;;;24.50;99.90;;;;;;6245778;23;20508;-71
2022/09/12 17:26:16;;;;;;;1.73;0.82;;;24.40;99.90;;;;;;6246100;23;20182;-71
2022/09/12 17:28:43;;;;;;;1.02;0.80;;;24.30;99.90;;;;;;6246186;23;20176;-71
2022/09/12 17:31:13;;;;;;;0.88;0.70;;;24.20;99.90;;;;;;6245794;22;20659;-71
2022/09/12 17:33:40;;;;;;;2.35;0.60;;;24.00;99.90;;;;;;6246134;23;20179;-70
2022/09/12 17:36:09;;;;;;;0.65;0.65;;;23.90;99.90;;;;;;6245807;23;20445;-70
2022/09/12 17:38:38;;;;;;;0.90;0.60;;;23.80;99.90;;;;;;6246095;23;20217;-71
2022/09/12 17:41:07;;;;;;;2.45;0.88;;;23.70;99.90;;;;;;6245599;22;20510;-71
2022/09/12 17:43:36;;;;;;;1.33;0.65;;;23.60;99.90;;;;;;6245778;23;20179;-70
2022/09/12 17:46:03;;;;;;;2.42;0.70;;;23.50;99.90;;;;;;6246119;23;20572;-71
2022/09/12 17:48:31;;;;;;;1.05;0.75;;;23.40;99.90;;;;;;6245229;23;20650;-71
2022/09/12 17:50:58;;;;;;;0.98;0.73;;;23.20;99.90;;;;;;6244971;22;20520;-70
2022/09/12 17:53:25;;;;;;;0.60;0.60;;;23.10;99.90;;;;;;6245614;23;20179;-70
2022/09/12 17:55:52;;;;;;;1.17;0.80;;;23.00;99.90;;;;;;6245949;23;20258;-70
2022/09/12 17:58:19;;;;;;;2.95;0.70;;;22.90;99.90;;;;;;6245616;23;20180;-70
2022/09/12 18:03:33;;;;;;;1.40;0.90;;;22.80;99.90;;;;;;6245478;23;20503;-70
2022/09/12 18:06:01;;;;;;;0.93;0.70;;;22.60;99.90;;;;;;6245502;23;20180;-70
2022/09/12 18:08:27;;;;;;;6.25;0.90;;;22.50;99.90;;;;;;6245837;23;20221;-70
2022/09/12 18:11:02;;;;;;;2.55;0.80;;;22.40;99.90;;;;;;6245603;22;20195;-71
2022/09/12 18:13:29;;;;;;;1.02;0.73;;;22.30;99.90;;;;;;6245991;23;20175;-71
2022/09/12 18:16:04;;;;;;;1.20;0.98;;;22.10;99.90;;;;;;6245883;23;20179;-71
2022/09/12 18:18:31;;;;;;;1.17;0.73;;;22.00;99.90;;;;;;6242486;23;20175;-71
2022/09/12 18:20:57;;;;;;;1.13;1.02;;;21.90;99.90;;;;;;6245443;22;20195;-71
2022/09/12 18:23:25;;;;;;;0.65;0.60;;;21.90;99.90;;;;;;6247842;23;20176;-71
2022/09/12 18:25:57;;;;;;;0.80;0.70;;;21.80;99.90;;;;;;6247220;23;20183;-71
2022/09/12 18:28:24;;;;;;;2.17;1.00;;;21.70;99.90;;;;;;6247019;23;20182;-71
2022/09/12 18:30:50;;;;;;;1.10;0.80;;;21.60;99.90;;;;;;6247434;22;20512;-71
2022/09/12 18:33:19;;;;;;;1.33;1.00;;;21.50;99.90;;;;;;6247374;23;20211;-71
2022/09/12 18:35:46;;;;;;;1.30;0.90;;;21.40;99.90;;;;;;6247479;23;20176;-71
2022/09/12 18:38:13;;;;;;;1.52;0.80;;;21.40;99.90;;;;;;6247582;23;20180;-71
2022/09/12 18:40:39;;;;;;;1.38;1.00;;;21.30;99.90;;;;;;6247019;22;20204;-69
2022/09/12 18:43:06;;;;;;;1.00;0.90;;;21.10;99.90;;;;;;6247193;23;20186;-69
2022/09/12 18:45:33;;;;;;;1.33;1.00;;;21.00;99.90;;;;;;6247618;23;20176;-69
2022/09/12 18:48:01;;;;;;;2.20;1.02;;;20.90;99.90;;;;;;6247781;23;20187;-69
2022/09/12 18:50:29;;;;;;;1.35;1.10;;;20.80;99.90;;;;;;6247483;22;20195;-69
2022/09/12 18:52:56;;;;;;;1.33;0.73;;;20.80;99.90;;;;;;6247287;23;20211;-68
2022/09/12 18:55:23;;;;;;;1.25;0.90;;;20.80;99.90;;;;;;6247686;23;20266;-69
2022/09/12 18:57:50;;;;;;;2.97;0.93;;;20.70;99.90;;;;;;6247433;23;20678;-70
2022/09/12 19:00:17;;;;;;;0.90;0.77;;;20.60;99.90;;;;;;6247598;22;20179;-70
2022/09/12 19:02:44;;;;;;;1.08;0.85;;;20.70;99.90;;;;;;6247568;23;20176;-72
2022/09/12 19:05:12;;;;;;;1.58;0.90;;;20.60;99.90;;;;;;6246794;23;20188;-68
2022/09/12 19:07:40;;;;;;;2.00;1.15;;;20.60;99.90;;;;;;6247193;23;20547;-72
2022/09/12 19:10:07;;;;;;;2.13;1.05;;;20.50;99.90;;;;;;6247519;22;20176;-70
2022/09/12 19:12:34;;;;;;;2.75;1.00;;;20.40;99.90;;;;;;6247531;23;20323;-70
2022/09/12 19:15:01;;;;;;;1.67;1.00;;;20.30;99.90;;;;;;6247702;23;20182;-71
2022/09/12 19:17:28;;;;;;;1.20;1.10;;;20.30;99.90;;;;;;6247235;23;20214;-71
2022/09/12 19:19:55;;;;;;;2.47;0.90;;;20.30;99.90;;;;;;6247355;23;20176;-71
2022/09/12 19:22:22;;;;;;;1.45;1.05;;;20.20;99.90;;;;;;6247067;22;20230;-71
2022/09/12 19:24:50;;;;;;;2.40;1.08;;;20.20;99.90;;;;;;6247556;23;20175;-70
2022/09/12 19:27:17;;;;;;;1.58;1.08;;;20.10;99.90;;;;;;6247289;23;20182;-71
2022/09/12 19:29:43;;;;;;;2.88;1.00;;;20.00;99.90;;;;;;6247274;23;20176;-70
2022/09/12 19:32:10;;;;;;;6.00;1.27;;;20.00;99.90;;;;;;6246861;22;20212;-71
2022/09/12 19:34:37;;;;;;;1.65;1.00;;;19.90;99.90;;;;;;6247173;23;20183;-71
2022/09/12 19:37:04;;;;;;;1.10;0.90;;;19.90;99.90;;;;;;6246994;23;20181;-71
2022/09/12 19:39:31;;;;;;;1.48;1.10;;;19.80;99.90;;;;;;6247330;23;20176;-70
2022/09/12 19:42:00;;;;;;;2.63;1.02;;;19.80;99.90;;;;;;6247264;22;20516;-71
2022/09/12 19:44:27;;;;;;;2.65;1.02;;;19.70;99.90;;;;;;6247120;23;20182;-70
2022/09/12 19:46:54;;;;;;;1.23;0.95;;;19.70;99.90;;;;;;6247169;23;20647;-70
2022/09/12 19:49:21;;;;;;;1.70;1.05;;;19.70;99.90;;;;;;6246598;23;20180;-70
2022/09/12 19:51:48;;;;;;;1.23;0.90;;;19.60;99.90;;;;;;6246891;22;20229;-71
2022/09/12 19:54:15;;;;;;;1.48;1.10;;;19.60;99.90;;;;;;6247011;23;20176;-70
2022/09/12 19:56:42;;;;;;;1.65;1.08;;;19.50;99.90;;;;;;6246837;23;20180;-71
2022/09/12 19:59:10;;;;;;;1.90;1.45;;;19.50;99.90;;;;;;6246978;23;20176;-70
2022/09/12 20:01:37;;;;;;;1.40;1.10;;;19.40;99.90;;;;;;6246827;22;20207;-71
2022/09/12 20:04:05;;;;;;;2.55;1.10;;;19.20;99.90;;;;;;6246967;23;20183;-71
2022/09/12 20:06:32;;;;;;;2.15;1.05;;;19.20;99.90;;;;;;6246352;23;20180;-71
2022/09/12 20:08:59;;;;;;;1.45;1.00;;;19.30;99.90;;;;;;6246949;23;20175;-70
2022/09/12 20:11:25;;;;;;;2.40;1.38;;;19.30;99.90;;;;;;6246989;22;20274;-70
2022/09/12 20:13:52;;;;;;;2.13;1.33;;;19.20;99.90;;;;;;6246717;23;20678;-71
2022/09/12 20:16:23;;;;;;;5.47;1.23;;;19.10;99.90;;;;;;6246401;23;20180;-70
2022/09/12 20:18:53;;;;;;;2.05;1.35;;;19.10;99.90;;;;;;6246844;23;20180;-70
2022/09/12 20:21:23;;;;;;;2.22;1.30;;;19.10;99.90;;;;;;6246363;22;20225;-71
2022/09/12 20:23:50;;;;;;;2.90;0.95;;;19.10;99.90;;;;;;6246743;23;20186;-71
2022/09/12 20:26:19;;;;;;;1.35;0.90;;;19.10;99.90;;;;;;6246519;23;20197;-70
2022/09/12 20:28:45;;;;;;;1.27;0.93;;;19.10;99.90;;;;;;6246259;23;20628;-71
2022/09/12 20:31:15;;;;;;;1.10;0.90;;;19.00;99.90;;;;;;6246524;22;20227;-70
2022/09/12 20:33:44;;;;;;;3.65;1.20;;;19.00;99.90;;;;;;6246339;23;20672;-71
2022/09/12 20:36:13;;;;;;;1.83;1.15;;;19.00;99.90;;;;;;6246124;23;20182;-71
2022/09/12 20:38:40;;;;;;;1.45;1.27;;;19.00;99.90;;;;;;6246422;23;20175;-71
2022/09/12 20:41:09;;;;;;;1.50;1.10;;;18.80;99.90;;;;;;6245959;22;20206;-71
2022/09/12 20:43:37;;;;;;;3.00;1.08;;;18.80;99.90;;;;;;6246251;23;20184;-72
2022/09/12 20:46:05;;;;;;;1.20;0.90;;;18.80;99.90;;;;;;6246001;23;20175;-71
2022/09/12 20:48:32;;;;;;;1.73;1.15;;;18.70;99.90;;;;;;6246218;23;20478;-71
2022/09/12 20:51:00;;;;;;;1.58;0.90;;;18.70;99.90;;;;;;6246152;22;20202;-71
2022/09/12 20:53:28;;;;;;;1.58;1.13;;;18.70;99.90;;;;;;6245006;23;20214;-71
2022/09/12 20:55:55;;;;;;;1.45;0.90;;;18.60;99.90;;;;;;6245254;23;20180;-70
2022/09/12 20:58:23;;;;;;;2.30;1.10;;;18.60;99.90;;;;;;6245638;23;20650;-73
2022/09/12 21:00:50;;;;;;;3.13;1.10;;;18.60;99.90;;;;;;6240826;22;20203;-73
2022/09/12 21:03:17;;;;;;;1.33;0.90;;;18.60;99.90;;;;;;6243323;23;20180;-71
2022/09/12 21:05:44;;;;;;;2.33;1.10;;;18.50;99.90;;;;;;6244678;23;20258;-72
2022/09/12 21:08:13;;;;;;;1.15;0.90;;;18.50;99.90;;;;;;6243734;23;20194;-70
2022/09/12 21:10:40;;;;;;;0.82;0.75;;;18.50;99.90;;;;;;6243748;22;20532;-70
2022/09/12 21:13:09;;;;;;;1.02;0.82;;;18.40;99.90;;;;;;6244075;23;20244;-72
2022/09/12 21:15:36;;;;;;;1.25;0.90;;;18.40;99.90;;;;;;6244322;23;20705;-71
2022/09/12 21:18:02;;;;;;;1.60;1.02;;;18.40;99.90;;;;;;6244313;23;20185;-71
2022/09/12 21:20:30;;;;;;;1.40;1.00;;;18.40;99.90;;;;;;6244200;22;20195;-71
2022/09/12 21:22:56;;;;;;;1.83;1.00;;;18.40;99.90;;;;;;6244377;23;20190;-71
2022/09/12 21:25:25;;;;;;;1.50;0.98;;;18.30;99.90;;;;;;6244455;23;20473;-73
2022/09/12 21:27:51;;;;;;;2.53;0.93;;;18.30;99.90;;;;;;6244019;23;20180;-72
2022/09/12 21:30:18;;;;;;;1.33;1.08;;;18.30;99.90;;;;;;6243716;22;20203;-73
2022/09/12 21:32:45;;;;;;;1.52;0.90;;;18.20;99.90;;;;;;6243683;23;20772;-74
